createdAt,value
2023-04-23T00:01:49.842Z,9.00
2023-04-23T00:05:04.881Z,9.00
2023-04-23T00:08:11.879Z,9.06
2023-04-23T00:11:18.913Z,9.14
2023-04-23T00:14:25.962Z,9.03
2023-04-23T00:17:31.983Z,9.10
2023-04-23T00:20:39.604Z,8.55
2023-04-23T00:23:46.349Z,8.45
2023-04-23T00:26:53.805Z,8.68
2023-04-23T00:30:00.568Z,8.76
2023-04-23T00:33:07.213Z,9.06
2023-04-23T00:36:15.088Z,8.93
2023-04-23T00:39:21.037Z,8.78
2023-04-23T00:42:28.316Z,8.20
2023-04-23T00:45:34.885Z,8.46
2023-04-23T00:48:41.516Z,8.59
2023-04-23T00:51:48.813Z,8.50
2023-04-23T00:54:55.040Z,8.80
2023-04-23T00:58:01.941Z,8.81
2023-04-23T01:01:08.864Z,8.87
2023-04-23T01:04:17.644Z,8.33
2023-04-23T01:07:25.378Z,8.41
2023-04-23T01:10:32.744Z,8.60
2023-04-23T01:13:38.406Z,8.69
2023-04-23T01:16:44.796Z,8.32
2023-04-23T01:19:50.725Z,8.56
2023-04-23T01:22:58.317Z,8.27
2023-04-23T01:26:04.760Z,7.92
2023-04-23T01:29:12.407Z,8.13
2023-04-23T01:32:19.104Z,8.02
2023-04-23T01:35:26.831Z,7.78
2023-04-23T01:38:35.464Z,7.75
2023-04-23T01:41:42.476Z,7.88
2023-04-23T01:44:48.919Z,8.10
2023-04-23T01:47:55.532Z,8.28
2023-04-23T01:51:02.159Z,7.92
2023-04-23T01:54:09.645Z,8.00
2023-04-23T01:57:16.314Z,7.78
2023-04-23T02:00:22.504Z,8.02
2023-04-23T02:03:30.595Z,8.42
2023-04-23T02:06:37.068Z,8.51
2023-04-23T02:09:44.515Z,8.49
2023-04-23T02:12:50.870Z,8.71
2023-04-23T02:15:57.308Z,8.88
2023-04-23T02:19:03.290Z,8.80
2023-04-23T02:22:10.479Z,8.87
2023-04-23T02:25:21.960Z,8.70
2023-04-23T02:28:28.190Z,8.46
2023-04-23T02:31:34.474Z,8.41
2023-04-23T02:34:40.730Z,8.27
2023-04-23T02:37:46.783Z,8.47
2023-04-23T02:40:54.461Z,8.64
2023-04-23T02:44:00.775Z,8.52
2023-04-23T02:47:07.029Z,8.49
2023-04-23T02:50:13.547Z,8.24
2023-04-23T02:53:19.737Z,8.48
2023-04-23T02:56:27.249Z,8.63
2023-04-23T02:59:33.971Z,8.22
2023-04-23T03:02:40.170Z,8.47
2023-04-23T03:05:46.499Z,8.45
2023-04-23T03:08:52.607Z,7.81
2023-04-23T03:12:00.704Z,7.70
2023-04-23T03:15:08.217Z,7.50
2023-04-23T03:18:14.452Z,7.43
2023-04-23T03:21:20.620Z,7.56
2023-04-23T03:24:27.378Z,7.84
2023-04-23T03:27:35.408Z,7.60
2023-04-23T03:30:41.770Z,7.28
2023-04-23T03:33:47.998Z,7.55
2023-04-23T03:36:54.089Z,7.41
2023-04-23T03:40:01.456Z,8.10
2023-04-23T03:43:08.824Z,8.17
2023-04-23T03:46:15.184Z,8.12
2023-04-23T03:49:21.314Z,7.98
2023-04-23T03:52:27.615Z,8.04
2023-04-23T03:55:33.649Z,8.00
2023-04-23T03:58:41.447Z,8.28
2023-04-23T04:01:49.324Z,8.29
2023-04-23T04:04:56.745Z,8.02
2023-04-23T04:08:05.162Z,7.93
2023-04-23T05:16:47.192Z,8.62
2023-04-23T05:19:53.580Z,8.62
2023-04-23T05:23:02.378Z,8.44
2023-04-23T05:26:08.329Z,8.06
2023-04-23T05:29:18.062Z,7.93
2023-04-23T05:32:25.756Z,8.38
2023-04-23T05:35:32.114Z,8.63
2023-04-23T05:38:37.896Z,8.02
2023-04-23T05:41:43.901Z,8.76
2023-04-23T05:44:50.128Z,8.61
2023-04-23T05:47:57.796Z,8.55
2023-04-23T05:51:04.177Z,8.90
2023-04-23T05:54:10.657Z,7.99
2023-04-23T05:57:17.278Z,8.00
2023-04-23T06:00:23.637Z,7.92
2023-04-23T06:03:31.526Z,7.90
2023-04-23T06:06:38.193Z,7.94
2023-04-23T06:09:44.680Z,9.28
2023-04-23T06:12:50.907Z,9.02
2023-04-23T06:15:57.082Z,9.50
2023-04-23T06:19:04.996Z,8.75
2023-04-23T06:22:11.479Z,8.24
2023-04-23T06:25:17.726Z,8.91
2023-04-23T06:28:23.818Z,8.44
2023-04-23T06:31:30.351Z,8.93
2023-04-23T06:34:46.645Z,9.89
2023-04-23T06:37:59.564Z,9.31
2023-04-23T06:41:06.233Z,9.34
2023-04-23T06:44:12.650Z,9.13
2023-04-23T06:47:19.031Z,8.92
2023-04-23T06:50:26.673Z,9.20
2023-04-23T06:53:33.194Z,8.69
2023-04-23T06:56:39.681Z,8.26
2023-04-23T06:59:46.223Z,10.36
2023-04-23T07:02:52.552Z,10.00
2023-04-23T07:06:00.594Z,11.21
2023-04-23T07:09:06.549Z,10.40
2023-04-23T07:12:12.891Z,9.62
2023-04-23T07:15:19.411Z,9.87
2023-04-23T07:18:25.552Z,10.98
2023-04-23T07:21:33.262Z,10.85
2023-04-23T07:24:39.765Z,10.61
2023-04-23T07:27:45.981Z,11.76
2023-04-23T07:30:52.398Z,11.40
2023-04-23T07:33:58.274Z,10.76
2023-04-23T07:37:05.874Z,11.61
2023-04-23T07:40:12.702Z,11.86
2023-04-23T07:43:19.073Z,13.51
2023-04-23T07:46:25.651Z,12.32
2023-04-23T07:49:32.183Z,11.43
2023-04-23T07:52:39.570Z,11.11
2023-04-23T07:55:45.827Z,12.70
2023-04-23T07:58:54.169Z,12.83
2023-04-23T08:02:00.941Z,12.44
2023-04-23T08:05:08.386Z,13.09
2023-04-23T08:08:16.371Z,12.47
2023-04-23T08:11:22.894Z,13.34
2023-04-23T08:14:29.065Z,13.05
2023-04-23T08:17:35.633Z,12.27
2023-04-23T08:20:41.876Z,13.35
2023-04-23T08:23:49.402Z,13.71
2023-04-23T08:26:55.924Z,14.66
2023-04-23T08:30:02.241Z,14.56
2023-04-23T08:33:08.923Z,13.65
2023-04-23T08:36:15.727Z,14.47
2023-04-23T08:39:23.593Z,13.39
2023-04-23T08:42:39.293Z,14.15
2023-04-23T08:45:48.668Z,14.38
2023-04-23T08:48:56.025Z,14.16
2023-04-23T08:52:16.413Z,14.43
2023-04-23T08:55:24.901Z,15.47
2023-04-23T08:58:32.343Z,15.32
2023-04-23T09:01:39.170Z,16.65
2023-04-23T09:04:49.565Z,16.95
2023-04-23T09:07:59.412Z,16.66
2023-04-23T09:11:07.974Z,17.53
2023-04-23T09:14:15.038Z,16.43
2023-04-23T09:17:24.170Z,17.42
2023-04-23T09:20:30.288Z,18.22
2023-04-23T09:23:41.421Z,18.33
2023-04-23T09:26:50.542Z,19.42
2023-04-23T09:29:57.738Z,18.25
2023-04-23T09:33:06.531Z,18.58
2023-04-23T09:36:16.364Z,18.59
2023-04-23T09:39:24.295Z,18.27
2023-04-23T09:42:32.576Z,18.40
2023-04-23T09:45:48.765Z,18.62
2023-04-23T09:48:58.209Z,17.55
2023-04-23T09:52:08.415Z,17.30
2023-04-23T09:55:14.846Z,17.56
2023-04-23T09:58:28.811Z,17.39
2023-04-23T10:01:35.480Z,17.17
2023-04-23T10:04:42.184Z,17.56
2023-04-23T10:07:50.341Z,18.15
2023-04-23T10:11:09.546Z,17.49
2023-04-23T10:14:25.702Z,17.38
2023-04-23T10:17:32.727Z,16.85
2023-04-23T10:20:38.820Z,17.49
2023-04-23T10:23:48.003Z,17.85
2023-04-23T10:26:58.429Z,17.73
2023-04-23T10:30:07.746Z,19.76
2023-04-23T10:33:26.559Z,18.66
2023-04-23T10:36:36.242Z,18.07
2023-04-23T10:39:46.094Z,20.28
2023-04-23T10:42:53.195Z,18.60
2023-04-23T10:46:01.789Z,20.19
2023-04-23T10:49:15.373Z,19.20
2023-04-23T10:52:25.116Z,18.82
2023-04-23T10:55:33.958Z,20.03
2023-04-23T10:58:52.738Z,20.18
2023-04-23T11:02:07.445Z,20.00
2023-04-23T11:05:13.678Z,21.23
2023-04-23T11:08:20.136Z,20.44
2023-04-23T11:11:41.388Z,20.63
2023-04-23T11:14:50.119Z,20.00
2023-04-23T11:18:03.997Z,19.70
2023-04-23T11:21:10.634Z,20.32
2023-04-23T11:24:17.080Z,18.18
2023-04-23T11:27:23.484Z,19.87
2023-04-23T11:30:31.409Z,20.80
2023-04-23T11:33:40.291Z,19.39
2023-04-23T11:36:47.786Z,21.29
2023-04-23T11:39:54.267Z,19.13
2023-04-23T11:43:00.420Z,19.24
2023-04-23T11:46:06.725Z,18.63
2023-04-23T11:49:14.864Z,18.93
2023-04-23T11:52:21.257Z,17.91
2023-04-23T11:55:27.662Z,18.21
2023-04-23T11:58:33.790Z,18.84
2023-04-23T12:01:48.006Z,20.28
2023-04-23T12:04:56.344Z,21.48
2023-04-23T12:08:10.399Z,21.38
2023-04-23T12:11:16.807Z,20.73
2023-04-23T12:14:28.975Z,20.42
2023-04-23T12:17:36.250Z,21.01
2023-04-23T12:20:44.309Z,21.25
2023-04-23T12:23:53.208Z,20.44
2023-04-23T12:27:02.872Z,20.77
2023-04-23T12:30:11.883Z,21.28
2023-04-23T12:33:18.966Z,21.12
2023-04-23T12:36:29.968Z,21.39
2023-04-23T12:39:36.584Z,21.56
2023-04-23T12:42:42.760Z,21.20
2023-04-23T12:45:52.417Z,22.16
2023-04-23T12:48:59.003Z,22.68
2023-04-23T12:52:08.353Z,21.23
2023-04-23T12:55:15.111Z,20.59
2023-04-23T12:58:24.165Z,22.46
2023-04-23T13:01:34.146Z,20.02
2023-04-23T13:04:40.626Z,21.38
2023-04-23T13:07:48.318Z,21.10
2023-04-23T13:10:54.481Z,20.76
2023-04-23T13:14:00.866Z,21.29
2023-04-23T13:17:08.372Z,19.94
2023-04-23T13:20:14.505Z,20.26
2023-04-23T13:23:22.016Z,18.64
2023-04-23T13:26:30.791Z,19.45
2023-04-23T13:29:37.101Z,18.90
2023-04-23T13:32:43.613Z,19.36
2023-04-23T13:35:49.724Z,18.60
2023-04-23T13:38:57.704Z,19.20
2023-04-23T13:42:09.535Z,19.66
2023-04-23T13:45:16.931Z,19.30
2023-04-23T13:48:23.376Z,19.56
2023-04-23T13:51:35.456Z,19.91
2023-04-23T13:54:43.728Z,20.01
2023-04-23T13:57:50.032Z,19.69
2023-04-23T14:00:56.124Z,19.10
2023-04-23T14:04:04.428Z,18.84
2023-04-23T14:07:10.743Z,18.38
2023-04-23T14:10:19.022Z,18.09
2023-04-23T14:13:25.185Z,17.44
2023-04-23T14:16:31.559Z,18.18
2023-04-23T14:19:38.101Z,17.41
2023-04-23T14:22:44.702Z,17.77
2023-04-23T14:25:54.974Z,18.52
2023-04-23T14:29:05.274Z,18.44
2023-04-23T14:32:12.630Z,17.59
2023-04-23T14:35:24.526Z,17.59
2023-04-23T14:38:36.583Z,16.99
2023-04-23T14:41:44.858Z,17.88
2023-04-23T14:44:53.490Z,18.08
2023-04-23T14:48:00.645Z,17.80
2023-04-23T14:51:07.192Z,17.68
2023-04-23T14:54:13.708Z,17.74
2023-04-23T14:57:21.636Z,17.32
2023-04-23T15:00:28.234Z,17.09
2023-04-23T15:03:35.087Z,16.93
2023-04-23T15:06:41.728Z,16.78
2023-04-23T15:09:48.038Z,16.95
2023-04-23T15:13:04.621Z,17.27
2023-04-23T15:16:28.431Z,17.26
2023-04-23T15:19:46.597Z,16.76
2023-04-23T15:22:53.060Z,16.80
2023-04-23T15:25:59.404Z,16.84
2023-04-23T15:29:09.077Z,16.99
2023-04-23T15:32:16.696Z,17.08
2023-04-23T15:35:23.602Z,16.69
2023-04-23T15:38:29.883Z,16.84
2023-04-23T15:41:39.319Z,16.58
2023-04-23T15:44:50.616Z,16.38
2023-04-23T15:47:56.987Z,16.30
2023-04-23T15:51:03.326Z,16.08
2023-04-23T15:54:09.759Z,16.10
2023-04-23T15:57:16.502Z,16.08
2023-04-23T16:00:24.759Z,16.03
2023-04-23T16:03:31.462Z,16.07
2023-04-23T16:06:38.359Z,15.69
2023-04-23T16:09:44.596Z,15.42
2023-04-23T16:12:50.798Z,15.15
2023-04-23T16:15:58.599Z,15.18
2023-04-23T16:19:05.117Z,14.66
2023-04-23T16:22:11.589Z,14.99
2023-04-23T16:25:18.192Z,14.73
2023-04-23T16:28:24.847Z,14.78
2023-04-23T16:31:32.549Z,14.71
2023-04-23T16:34:38.968Z,14.59
2023-04-23T16:37:44.955Z,14.63
2023-04-23T16:40:51.731Z,14.35
2023-04-23T16:43:58.062Z,14.51
2023-04-23T16:47:05.910Z,14.31
2023-04-23T16:50:13.056Z,13.99
2023-04-23T16:53:19.138Z,13.70
2023-04-23T16:56:25.657Z,13.78
2023-04-23T16:59:32.023Z,13.62
2023-04-23T17:02:42.043Z,13.53
2023-04-23T17:05:51.614Z,13.50
2023-04-23T17:08:59.464Z,13.31
2023-04-23T17:12:07.924Z,13.30
2023-04-23T17:15:14.181Z,13.16
2023-04-23T17:18:21.724Z,12.96
2023-04-23T17:21:30.441Z,12.99
2023-04-23T17:24:37.757Z,12.80
2023-04-23T17:27:45.941Z,12.79
2023-04-23T17:30:54.037Z,12.86
2023-04-23T17:34:01.412Z,12.60
2023-04-23T17:37:07.513Z,12.65
2023-04-23T17:40:14.050Z,12.53
2023-04-23T17:43:21.028Z,12.43
2023-04-23T17:46:27.582Z,12.43
2023-04-23T17:49:35.041Z,12.46
2023-04-23T17:52:41.394Z,12.35
2023-04-23T17:55:50.401Z,12.42
2023-04-23T17:58:56.184Z,12.36
2023-04-23T18:02:03.834Z,12.20
2023-04-23T18:05:13.180Z,12.43
2023-04-23T18:08:19.651Z,12.26
2023-04-23T18:11:25.968Z,12.22
2023-04-23T18:14:32.027Z,12.02
2023-04-23T18:17:38.273Z,12.10
2023-04-23T18:20:46.447Z,12.13
2023-04-23T18:23:53.136Z,12.10
2023-04-23T18:26:59.628Z,11.75
2023-04-23T18:30:08.329Z,11.79
2023-04-23T18:33:27.379Z,11.75
2023-04-23T18:36:39.160Z,11.68
2023-04-23T18:39:45.945Z,11.65
2023-04-23T18:42:52.455Z,11.61
2023-04-23T18:45:59.064Z,11.50
2023-04-23T18:49:07.827Z,11.59
2023-04-23T18:52:15.792Z,11.46
2023-04-23T18:55:22.150Z,11.52
2023-04-23T18:58:30.288Z,11.58
2023-04-23T19:01:37.199Z,11.38
2023-04-23T19:04:43.884Z,11.30
2023-04-23T19:07:52.005Z,11.34
2023-04-23T19:10:58.778Z,11.26
2023-04-23T19:14:05.338Z,11.21
2023-04-23T19:17:11.725Z,11.04
2023-04-23T19:20:18.749Z,11.01
2023-04-23T19:23:26.677Z,11.06
2023-04-23T19:26:33.169Z,10.88
2023-04-23T19:29:39.826Z,10.94
2023-04-23T19:32:46.294Z,10.67
2023-04-23T19:35:52.499Z,10.28
2023-04-23T19:39:00.199Z,10.36
2023-04-23T19:42:07.238Z,10.49
2023-04-23T19:45:15.559Z,10.46
2023-04-23T19:48:22.057Z,10.53
2023-04-23T19:51:32.992Z,10.65
2023-04-23T19:54:42.149Z,10.59
2023-04-23T19:57:48.830Z,10.53
2023-04-23T20:00:55.299Z,10.18
2023-04-23T20:04:01.653Z,10.07
2023-04-23T20:07:08.298Z,10.09
2023-04-23T20:10:17.514Z,10.12
2023-04-23T20:13:25.233Z,10.01
2023-04-23T20:16:31.787Z,9.80
2023-04-23T20:19:38.586Z,9.54
2023-04-23T20:22:44.861Z,9.73
2023-04-23T20:25:52.466Z,9.79
2023-04-23T20:28:58.925Z,9.83
2023-04-23T20:32:05.286Z,9.80
2023-04-23T20:35:30.874Z,9.59
2023-04-23T20:38:38.121Z,9.62
2023-04-23T20:41:46.743Z,9.53
2023-04-23T20:44:53.150Z,9.25
2023-04-23T20:48:02.081Z,9.33
2023-04-23T20:51:08.255Z,9.37
2023-04-23T20:54:14.545Z,9.18
2023-04-23T20:57:21.900Z,9.12
2023-04-23T21:00:28.450Z,9.33
2023-04-23T21:03:37.028Z,9.21
2023-04-23T21:06:44.075Z,9.28
2023-04-23T21:09:50.328Z,9.14
2023-04-23T21:12:58.549Z,8.89
2023-04-23T21:16:05.201Z,8.91
2023-04-23T21:19:11.520Z,8.71
2023-04-23T21:22:17.597Z,8.64
2023-04-23T21:25:23.813Z,8.53
2023-04-23T21:28:32.417Z,8.57
2023-04-23T21:31:44.976Z,8.48
2023-04-23T21:34:51.417Z,8.66
2023-04-23T21:37:57.840Z,8.34
2023-04-23T21:41:04.398Z,8.34
2023-04-23T21:44:12.009Z,8.12
2023-04-23T21:47:18.489Z,8.18
2023-04-23T21:50:25.100Z,8.40
2023-04-23T21:53:31.609Z,8.10
2023-04-23T21:56:38.082Z,8.36
2023-04-23T21:59:45.962Z,8.23
2023-04-23T22:02:55.193Z,8.06
2023-04-23T22:06:02.784Z,6.94
2023-04-23T22:09:10.323Z,6.53
2023-04-23T22:12:16.981Z,7.23
2023-04-23T22:15:25.790Z,7.35
2023-04-23T22:18:33.604Z,8.06
2023-04-23T22:21:39.890Z,7.99
2023-04-23T22:24:46.437Z,7.76
2023-04-23T22:27:52.796Z,7.83
2023-04-23T22:31:00.789Z,7.34
2023-04-23T22:34:07.010Z,7.20
2023-04-23T22:37:13.584Z,7.47
2023-04-23T22:40:20.015Z,7.50
2023-04-23T22:43:26.383Z,7.31
2023-04-23T22:46:34.667Z,7.52
2023-04-23T22:49:42.278Z,7.35
2023-04-23T22:52:49.084Z,6.80
2023-04-23T22:55:55.945Z,6.94
2023-04-23T22:59:02.374Z,7.15
2023-04-23T23:02:10.097Z,7.34
2023-04-23T23:05:16.538Z,6.89
2023-04-23T23:08:22.643Z,7.30
2023-04-23T23:11:29.795Z,6.98
2023-04-23T23:14:37.937Z,6.99
2023-04-23T23:17:45.661Z,6.49
2023-04-23T23:20:51.984Z,6.42
2023-04-23T23:23:58.336Z,6.51
2023-04-23T23:27:04.407Z,7.09
2023-04-23T23:30:11.636Z,7.41
2023-04-23T23:33:19.624Z,7.28
2023-04-23T23:36:26.255Z,7.14
2023-04-23T23:39:32.355Z,7.33
2023-04-23T23:42:38.636Z,7.46
2023-04-23T23:45:45.267Z,7.29
2023-04-23T23:48:53.200Z,7.38
2023-04-23T23:51:59.538Z,7.43
2023-04-23T23:55:07.176Z,7.36
2023-04-23T23:58:13.386Z,7.31
